createdAt,value
2023-05-02T00:00:45.114Z,171.4615
2023-05-02T00:01:45.874Z,176.1538
2023-05-02T00:02:47.503Z,174.3846
2023-05-02T00:03:49.275Z,174.9231
2023-05-02T00:04:50.797Z,173.3846
2023-05-02T00:05:52.425Z,176.7692
2023-05-02T00:06:54.182Z,176.2308
2023-05-02T00:07:55.699Z,172.9231
2023-05-02T00:08:57.305Z,172.8462
2023-05-02T00:09:59.220Z,169.6154
2023-05-02T00:11:00.987Z,175.7692
2023-05-02T00:12:02.295Z,175.6154
2023-05-02T00:13:03.939Z,173.8462
2023-05-02T00:14:05.501Z,168.7692
2023-05-02T00:15:07.205Z,169.8462
2023-05-02T00:16:08.871Z,171.6923
2023-05-02T00:17:10.593Z,173.2308
2023-05-02T00:18:12.231Z,178.1538
2023-05-02T00:19:13.782Z,174.2308
2023-05-02T00:20:15.401Z,175.1538
2023-05-02T00:21:17.181Z,173.6923
2023-05-02T00:22:18.759Z,169.5385
2023-05-02T00:23:20.444Z,171.1538
2023-05-02T00:24:21.991Z,174.9231
2023-05-02T00:25:23.668Z,174.0000
2023-05-02T00:26:25.364Z,172.8462
2023-05-02T00:27:26.978Z,170.3077
2023-05-02T00:28:28.557Z,177.7692
2023-05-02T00:29:30.230Z,179.6154
2023-05-02T00:30:31.867Z,174.0769
2023-05-02T00:31:34.103Z,173.2308
2023-05-02T00:32:35.220Z,168.3077
2023-05-02T00:33:36.842Z,170.8462
2023-05-02T00:34:38.419Z,171.0769
2023-05-02T00:35:40.114Z,173.7692
2023-05-02T00:36:41.780Z,170.6154
2023-05-02T00:37:43.548Z,169.6923
2023-05-02T00:38:45.016Z,170.8462
2023-05-02T00:39:46.693Z,176.4615
2023-05-02T00:40:48.346Z,175.2308
2023-05-02T00:41:50.037Z,171.3846
2023-05-02T00:42:51.652Z,175.4615
2023-05-02T00:43:53.252Z,174.2308
2023-05-02T00:44:54.851Z,174.7692
2023-05-02T00:45:56.608Z,172.0000
2023-05-02T00:46:58.553Z,172.6154
2023-05-02T00:48:00.560Z,170.2308
2023-05-02T00:49:01.469Z,168.0769
2023-05-02T00:50:03.369Z,167.8462
2023-05-02T00:51:04.751Z,166.3846
2023-05-02T00:52:06.483Z,167.3846
2023-05-02T00:53:08.093Z,171.0769
2023-05-02T00:54:09.792Z,171.8462
2023-05-02T00:55:11.342Z,169.9231
2023-05-02T00:56:13.017Z,165.9231
2023-05-02T00:57:14.644Z,171.3077
2023-05-02T00:58:16.571Z,168.6154
2023-05-02T00:59:17.904Z,168.6154
2023-05-02T01:00:19.591Z,164.3846
2023-05-02T01:01:21.271Z,166.4615
2023-05-02T01:02:24.637Z,165.3077
2023-05-02T01:03:24.724Z,163.6923
2023-05-02T01:04:26.172Z,163.4615
2023-05-02T01:05:27.775Z,169.8462
2023-05-02T01:06:29.505Z,164.3846
2023-05-02T01:07:31.130Z,164.7692
2023-05-02T01:08:32.786Z,162.2308
2023-05-02T01:09:34.401Z,167.6923
2023-05-02T01:10:36.082Z,165.2308
2023-05-02T01:11:37.721Z,166.2308
2023-05-02T01:12:39.352Z,167.1538
2023-05-02T01:13:41.030Z,167.8462
2023-05-02T01:14:42.620Z,163.2308
2023-05-02T01:15:44.300Z,168.0000
2023-05-02T01:16:45.975Z,169.8462
2023-05-02T01:17:47.678Z,169.2308
2023-05-02T01:18:49.258Z,163.8462
2023-05-02T01:19:50.850Z,169.1538
2023-05-02T01:20:52.565Z,169.6154
2023-05-02T01:21:54.128Z,166.0769
2023-05-02T01:22:55.833Z,166.1538
2023-05-02T01:23:57.427Z,161.8462
2023-05-02T01:24:59.079Z,159.8462
2023-05-02T01:26:00.721Z,166.0000
2023-05-02T01:27:02.351Z,164.8462
2023-05-02T01:28:04.012Z,162.5385
2023-05-02T01:29:05.717Z,166.3846
2023-05-02T01:30:07.281Z,165.3077
2023-05-02T01:31:08.965Z,173.2308
2023-05-02T01:32:10.579Z,177.0769
2023-05-02T01:33:12.318Z,163.6154
2023-05-02T01:34:13.904Z,161.4615
2023-05-02T01:35:15.550Z,164.1538
2023-05-02T01:36:17.139Z,166.8462
2023-05-02T01:37:18.847Z,166.7692
2023-05-02T01:38:20.496Z,162.0000
2023-05-02T01:39:22.547Z,161.2308
2023-05-02T01:40:23.791Z,165.6154
2023-05-02T01:41:25.459Z,164.3846
2023-05-02T01:42:27.077Z,167.0769
2023-05-02T01:43:28.735Z,165.6923
2023-05-02T01:44:30.356Z,166.7692
2023-05-02T01:45:32.049Z,170.3077
2023-05-02T01:46:33.663Z,163.1538
2023-05-02T01:47:35.333Z,167.7692
2023-05-02T01:48:37.066Z,161.4615
2023-05-02T01:49:38.721Z,165.3846
2023-05-02T01:50:40.221Z,167.6923
2023-05-02T01:51:41.907Z,169.5385
2023-05-02T01:52:43.576Z,162.6923
2023-05-02T01:53:45.571Z,163.6923
2023-05-02T01:54:46.820Z,168.7692
2023-05-02T01:55:48.468Z,164.6923
2023-05-02T01:56:50.126Z,168.8462
2023-05-02T01:57:51.757Z,167.4615
2023-05-02T01:58:53.444Z,160.8462
2023-05-02T01:59:55.083Z,164.7692
2023-05-02T02:00:56.680Z,166.7692
2023-05-02T02:01:58.366Z,163.3846
2023-05-02T02:03:00.040Z,161.1538
2023-05-02T02:04:02.143Z,164.6923
2023-05-02T02:05:03.300Z,175.9231
2023-05-02T02:06:04.978Z,174.6154
2023-05-02T02:07:06.542Z,172.7692
2023-05-02T02:08:08.215Z,166.7692
2023-05-02T02:09:09.868Z,164.4615
2023-05-02T02:10:11.518Z,165.3077
2023-05-02T02:11:13.142Z,162.9231
2023-05-02T02:12:14.771Z,167.0000
2023-05-02T02:13:16.468Z,169.9231
2023-05-02T02:14:18.070Z,165.6923
2023-05-02T02:15:19.794Z,166.4615
2023-05-02T02:16:21.378Z,162.3077
2023-05-02T02:17:23.019Z,161.1538
2023-05-02T02:18:24.614Z,164.5385
2023-05-02T02:19:26.353Z,158.0000
2023-05-02T02:20:27.897Z,162.0000
2023-05-02T02:21:29.580Z,160.4615
2023-05-02T02:22:31.181Z,157.6923
2023-05-02T02:23:33.013Z,163.7692
2023-05-02T02:24:34.592Z,162.3846
2023-05-02T02:25:36.259Z,160.5385
2023-05-02T02:26:37.820Z,160.7692
2023-05-02T02:27:39.503Z,168.3077
2023-05-02T02:28:41.103Z,168.7692
2023-05-02T02:29:42.848Z,164.3846
2023-05-02T02:30:44.468Z,160.4615
2023-05-02T02:31:46.108Z,158.2308
2023-05-02T02:32:47.760Z,157.3846
2023-05-02T02:33:49.372Z,160.0000
2023-05-02T02:34:51.030Z,162.0769
2023-05-02T02:35:52.696Z,158.0000
2023-05-02T02:36:54.295Z,160.4615
2023-05-02T02:37:55.959Z,164.2308
2023-05-02T02:38:57.617Z,161.3846
2023-05-02T02:39:59.844Z,158.8462
2023-05-02T02:41:00.841Z,163.2308
2023-05-02T02:42:02.519Z,162.9231
2023-05-02T02:43:04.104Z,165.0769
2023-05-02T02:44:06.560Z,169.2308
2023-05-02T02:45:07.425Z,165.2308
2023-05-02T02:46:09.156Z,159.6923
2023-05-02T02:47:10.706Z,160.6923
2023-05-02T02:48:12.430Z,162.5385
2023-05-02T02:49:13.994Z,163.0000
2023-05-02T02:50:16.138Z,165.1538
2023-05-02T02:51:17.289Z,163.3077
2023-05-02T02:52:19.468Z,169.5385
2023-05-02T02:53:20.524Z,169.0000
2023-05-02T02:54:27.042Z,165.8462
2023-05-02T02:55:23.896Z,155.1538
2023-05-02T02:56:25.506Z,163.6923
2023-05-02T02:57:27.092Z,167.4615
2023-05-02T02:58:28.792Z,167.8462
2023-05-02T02:59:30.384Z,165.3077
2023-05-02T03:00:32.147Z,165.9231
2023-05-02T03:01:33.797Z,163.0769
2023-05-02T03:02:35.397Z,163.3077
2023-05-02T03:03:37.041Z,162.8462
2023-05-02T03:04:38.658Z,157.6923
2023-05-02T03:05:40.366Z,166.6154
2023-05-02T03:06:42.032Z,165.0000
2023-05-02T03:07:43.588Z,171.5385
2023-05-02T03:08:45.223Z,165.7692
2023-05-02T03:09:46.870Z,164.9231
2023-05-02T03:10:48.576Z,159.7692
2023-05-02T03:11:50.194Z,163.7692
2023-05-02T03:12:51.799Z,161.0000
2023-05-02T03:13:53.467Z,162.3846
2023-05-02T03:14:55.149Z,159.1538
2023-05-02T03:15:56.817Z,165.0769
2023-05-02T03:16:58.437Z,165.3077
2023-05-02T03:18:00.034Z,170.4615
2023-05-02T03:19:01.696Z,162.6154
2023-05-02T03:20:03.304Z,159.5385
2023-05-02T03:21:04.996Z,161.8462
2023-05-02T03:22:07.085Z,158.6154
2023-05-02T03:23:08.264Z,162.1538
2023-05-02T03:24:09.898Z,162.4615
2023-05-02T03:25:11.569Z,165.3077
2023-05-02T03:26:13.163Z,163.7692
2023-05-02T03:27:14.930Z,162.2308
2023-05-02T03:28:16.540Z,160.5385
2023-05-02T03:29:18.198Z,164.0769
2023-05-02T03:30:19.770Z,171.3846
2023-05-02T03:31:21.881Z,177.6923
2023-05-02T03:32:23.191Z,169.0000
2023-05-02T03:33:24.781Z,167.0769
2023-05-02T03:34:26.343Z,160.3846
2023-05-02T03:35:28.041Z,163.0769
2023-05-02T03:36:29.670Z,167.3846
2023-05-02T03:37:31.404Z,165.9231
2023-05-02T03:38:33.041Z,167.3846
2023-05-02T03:39:34.621Z,169.3846
2023-05-02T03:40:36.203Z,169.0769
2023-05-02T03:41:37.914Z,161.3846
2023-05-02T03:42:39.624Z,170.6923
2023-05-02T03:43:41.277Z,171.2308
2023-05-02T03:44:43.581Z,182.8462
2023-05-02T03:45:44.500Z,174.4615
2023-05-02T03:46:46.169Z,170.9231
2023-05-02T03:47:47.812Z,160.7692
2023-05-02T03:48:49.435Z,172.1538
2023-05-02T03:49:51.098Z,168.3077
2023-05-02T03:50:52.702Z,173.3846
2023-05-02T03:51:54.404Z,162.2308
2023-05-02T03:52:55.959Z,165.4615
2023-05-02T03:53:57.725Z,163.7692
2023-05-02T03:54:59.290Z,170.8462
2023-05-02T03:56:00.937Z,178.9231
2023-05-02T03:57:02.538Z,190.0769
2023-05-02T03:58:04.251Z,193.7692
2023-05-02T03:59:05.914Z,198.6923
2023-05-02T04:00:07.540Z,210.7692
2023-05-02T04:01:09.162Z,203.3077
2023-05-02T04:02:10.869Z,205.2308
2023-05-02T04:03:13.092Z,208.6154
2023-05-02T04:04:14.176Z,214.8462
2023-05-02T04:05:15.729Z,222.1538
2023-05-02T04:06:17.452Z,224.2308
2023-05-02T04:07:19.029Z,227.0000
2023-05-02T04:08:20.726Z,227.0769
2023-05-02T04:09:22.361Z,232.4615
2023-05-02T04:10:24.017Z,240.6154
2023-05-02T04:11:25.613Z,234.6154
2023-05-02T04:12:27.326Z,238.4615
2023-05-02T04:13:28.911Z,234.4615
2023-05-02T04:14:30.614Z,234.4615
2023-05-02T04:15:33.098Z,243.1538
2023-05-02T04:16:34.729Z,244.7692
2023-05-02T04:17:35.582Z,247.3846
2023-05-02T04:18:37.142Z,253.1538
2023-05-02T04:19:38.891Z,250.7692
2023-05-02T04:20:40.421Z,249.9231
2023-05-02T04:21:42.066Z,250.7692
2023-05-02T04:22:43.650Z,256.0769
2023-05-02T04:23:46.050Z,259.3077
2023-05-02T04:24:47.007Z,260.8462
2023-05-02T04:25:48.616Z,260.0769
2023-05-02T04:26:50.288Z,263.2308
2023-05-02T04:27:51.911Z,268.0769
2023-05-02T04:28:53.571Z,273.3846
2023-05-02T04:29:55.250Z,278.1538
2023-05-02T04:30:56.932Z,283.8462
2023-05-02T04:31:58.503Z,279.9231
2023-05-02T04:33:00.196Z,282.2308
2023-05-02T04:34:01.810Z,280.0769
2023-05-02T04:35:04.138Z,281.5385
2023-05-02T04:36:05.120Z,288.4615
2023-05-02T04:37:06.726Z,285.8462
2023-05-02T04:38:08.392Z,290.3077
2023-05-02T04:39:10.043Z,300.3077
2023-05-02T04:40:11.677Z,300.6154
2023-05-02T04:41:13.357Z,298.8462
2023-05-02T04:42:14.993Z,305.6923
2023-05-02T04:43:16.625Z,310.5385
2023-05-02T04:44:18.296Z,302.7692
2023-05-02T04:45:19.984Z,308.6923
2023-05-02T04:46:21.623Z,307.1538
2023-05-02T04:47:23.240Z,306.7692
2023-05-02T04:48:24.840Z,308.5385
2023-05-02T04:49:26.598Z,314.0000
2023-05-02T04:50:28.323Z,317.9231
2023-05-02T04:51:29.848Z,315.0769
2023-05-02T04:52:31.487Z,318.7692
2023-05-02T04:53:33.072Z,320.0769
2023-05-02T04:54:34.781Z,317.0000
2023-05-02T04:55:36.561Z,314.8462
2023-05-02T04:56:38.576Z,314.3077
2023-05-02T04:57:39.671Z,313.4615
2023-05-02T04:58:41.330Z,316.5385
2023-05-02T04:59:42.987Z,320.4615
2023-05-02T05:00:44.652Z,326.3077
2023-05-02T05:01:46.433Z,333.1538
2023-05-02T05:02:47.975Z,338.3846
2023-05-02T05:03:49.688Z,334.0769
2023-05-02T05:04:51.229Z,340.6923
2023-05-02T05:05:53.089Z,339.9231
2023-05-02T05:06:54.664Z,339.6923
2023-05-02T05:07:56.167Z,342.4615
2023-05-02T05:08:57.790Z,340.3077
2023-05-02T05:09:59.537Z,344.0000
2023-05-02T05:11:01.058Z,341.6923
2023-05-02T05:12:02.963Z,344.3846
2023-05-02T05:13:04.492Z,347.4615
2023-05-02T05:14:06.187Z,348.0769
2023-05-02T05:15:07.850Z,350.1538
2023-05-02T05:16:09.496Z,346.4615
2023-05-02T05:17:11.114Z,351.3846
2023-05-02T05:18:12.838Z,357.4615
2023-05-02T05:19:14.408Z,362.0769
2023-05-02T05:20:16.034Z,357.4615
2023-05-02T05:21:17.699Z,354.5385
2023-05-02T05:22:20.339Z,353.2308
2023-05-02T05:23:21.881Z,355.8462
2023-05-02T05:24:22.789Z,349.3846
2023-05-02T05:25:24.212Z,356.3077
2023-05-02T05:26:25.954Z,361.3846
2023-05-02T05:27:27.554Z,364.5385
2023-05-02T05:28:29.219Z,362.0000
2023-05-02T05:29:30.857Z,366.7692
2023-05-02T05:30:32.496Z,367.1538
2023-05-02T05:31:34.227Z,368.0769
2023-05-02T05:32:35.834Z,371.9231
2023-05-02T05:33:37.465Z,372.3846
2023-05-02T05:34:39.110Z,372.5385
2023-05-02T05:35:40.703Z,376.3846
2023-05-02T05:36:42.361Z,375.3846
2023-05-02T05:37:44.070Z,388.6923
2023-05-02T05:38:45.677Z,379.6923
2023-05-02T05:39:47.302Z,384.5385
2023-05-02T05:40:48.911Z,387.1538
2023-05-02T05:41:50.586Z,386.8462
2023-05-02T05:42:52.269Z,386.8462
2023-05-02T05:43:53.941Z,390.9231
2023-05-02T05:44:55.486Z,389.5385
2023-05-02T05:45:57.220Z,398.2308
2023-05-02T05:46:58.926Z,405.6154
2023-05-02T05:48:00.533Z,399.2308
2023-05-02T05:49:02.188Z,399.0769
2023-05-02T05:50:03.962Z,396.3846
2023-05-02T05:51:05.436Z,402.0000
2023-05-02T05:52:07.066Z,406.1538
2023-05-02T05:53:08.626Z,408.6923
2023-05-02T05:54:10.334Z,402.6154
2023-05-02T05:55:11.965Z,407.0769
2023-05-02T05:56:13.938Z,406.1538
2023-05-02T05:57:15.778Z,406.7692
2023-05-02T05:58:16.928Z,410.5385
2023-05-02T05:59:18.466Z,409.9231
2023-05-02T06:00:20.172Z,405.6154
2023-05-02T06:01:21.769Z,412.9231
2023-05-02T06:02:23.612Z,418.3077
2023-05-02T06:03:25.168Z,414.6923
2023-05-02T06:04:26.829Z,420.3077
2023-05-02T06:05:28.306Z,421.9231
2023-05-02T06:06:30.034Z,413.3846
2023-05-02T06:07:31.602Z,414.3077
2023-05-02T06:08:33.303Z,421.0000
2023-05-02T06:09:34.927Z,427.1538
2023-05-02T06:10:36.583Z,428.4615
2023-05-02T06:11:38.249Z,427.6154
2023-05-02T06:12:39.877Z,426.9231
2023-05-02T06:13:41.615Z,433.8462
